Nissho Maru No.18 — JL6369 — position and weather

sailwx.info

Track history (hours):
 
Tides and Currents Weather Stations Pressure Air Temp Water Temp Dewpoint Dewpoint Depression Visibility Wind Speed Wind Dir Waves Ship Positions

Nissho Maru No.18

Last reported at 2014-Sep-18 07:32 UTC. Time now 2014-Sep-19 01:47 UTC.
Position N 34°13' E 132°15'.

Length 65 m; draft 4 m.

Type: Tanker. MMSI: 431500465.

Date/timePositionNaut miles runAvg speedWind from/ knotsBaromVisibWave heightAir tempDewpointWater temp
2014-Sep-18 07:32N 34°13' E 132°15'0 0.0
2014-Sep-18 06:32N 34°13' E 132°15'0 0.0
2014-Sep-18 02:32N 34°13' E 132°15'0 0.0
2014-Sep-18 00:23N 34°13' E 132°15'  
2014-Sep-14 11:14N 34°35' E 134°51'710.7
2014-Sep-14 10:34N 34°37' E 134°59'7 7.1
2014-Sep-14 09:33N 34°32' E 135°04'1110.4
2014-Sep-14 08:33N 34°22' E 135°01'10 9.6
2014-Sep-14 07:33N 34°12' E 134°60'230 9.1
2014-Sep-13 06:20N 35°04' E 139°32'1011.8
2014-Sep-13 05:31N 35°08' E 139°43'1010.4
2014-Sep-13 04:33N 35°18' E 139°44'10 9.5
2014-Sep-13 03:33N 35°27' E 139°47'4 3.6
2014-Sep-13 02:33N 35°31' E 139°46'0 0.0
2014-Sep-13 01:33N 35°31' E 139°46'0 0.0
2014-Sep-13 00:33N 35°31' E 139°46'3 2.6
2014-Sep-12 23:33N 35°29' E 139°48'0 0.2
2014-Sep-12 22:32N 35°28' E 139°48'0 0.0
2014-Sep-12 21:32N 35°28' E 139°48'0 0.0
2014-Sep-12 20:32N 35°28' E 139°48'4 4.6
2014-Sep-12 19:33N 35°24' E 139°46'10 9.8
2014-Sep-12 18:33N 35°14' E 139°47'9 9.5
2014-Sep-12 17:33N 35°05' E 139°44'240 8.2
2014-Sep-11 12:19N 34°05' E 135°02'910.3
2014-Sep-11 11:24N 34°14' E 135°03'8 9.4
2014-Sep-11 10:34N 34°21' E 135°06'1110.9
2014-Sep-11 09:33N 34°29' E 135°16'10 9.7
2014-Sep-11 08:33N 34°33' E 135°26'0 0.0
2014-Sep-11 07:33N 34°33' E 135°26'0 0.0
2014-Sep-11 06:33N 34°33' E 135°26'0 0.0
2014-Sep-11 05:33N 34°33' E 135°26'0 0.0
2014-Sep-11 04:34N 34°33' E 135°26'1 1.4
2014-Sep-11 03:29N 34°33' E 135°25'5 3.5
2014-Sep-11 02:10N 34°32' E 135°19'0 0.0
2014-Sep-11 01:11N 34°32' E 135°19'0 0.0
2014-Sep-11 00:32N 34°32' E 135°19'0 0.0
2014-Sep-10 23:08N 34°32' E 135°19'0 0.0
2014-Sep-10 22:32N 34°32' E 135°19'0 0.1
2014-Sep-10 21:26N 34°32' E 135°19'0 0.0
2014-Sep-10 17:32N 34°32' E 135°19'0 0.0
2014-Sep-10 16:26N 34°32' E 135°19'0 0.0
2014-Sep-10 15:08N 34°32' E 135°19'0 0.0
2014-Sep-10 14:14N 34°32' E 135°19'0 0.0
2014-Sep-10 13:32N 34°32' E 135°19'0 0.1
2014-Sep-10 12:32N 34°32' E 135°19'0 0.0
2014-Sep-10 11:26N 34°32' E 135°19'0 0.0
2014-Sep-10 10:33N 34°32' E 135°19'0 0.0
2014-Sep-10 09:22N 34°32' E 135°19'0 0.0
2014-Sep-10 08:16N 34°32' E 135°19'0 0.0
2014-Sep-10 07:24N 34°32' E 135°19'0 0.0
2014-Sep-10 06:24N 34°32' E 135°19'0 0.0
2014-Sep-10 05:33N 34°32' E 135°19'0 0.0
2014-Sep-10 04:33N 34°32' E 135°19'0 0.0
2014-Sep-10 03:21N 34°32' E 135°19'6 7.2
2014-Sep-10 02:33N 34°28' E 135°14'1210.8
2014-Sep-10 01:26N 34°19' E 135°04'1011.1
2014-Sep-10 00:33N 34°09' E 135°03'205 5.7
2014-Sep-08 12:32N 34°48' E 139°07'1510.5
2014-Sep-08 11:09N 34°58' E 139°20'610.0
2014-Sep-08 10:31N 35°01' E 139°27'1010.2
2014-Sep-08 09:33N 35°05' E 139°38'10 9.9
2014-Sep-08 08:33N 35°12' E 139°46'1010.3
2014-Sep-08 07:33N 35°22' E 139°42'  
Track history (hours):
 
Tides and Currents Weather Stations Pressure Air Temp Water Temp Dewpoint Dewpoint Depression Visibility Wind Speed Wind Dir Waves Ship Positions

Nissho Maru No.18

Last reported at 2014-Sep-18 07:32 UTC. Time now 2014-Sep-19 01:47 UTC.
Position N 34°13' E 132°15'.

Length 65 m; draft 4 m.

Type: Tanker. MMSI: 431500465.

Date/timePositionNaut miles runAvg speedWind from/ knotsBaromVisibWave heightAir tempDewpointWater temp
2014-Sep-18 07:32N 34°13' E 132°15'0 0.0
2014-Sep-18 06:32N 34°13' E 132°15'0 0.0
2014-Sep-18 02:32N 34°13' E 132°15'0 0.0
2014-Sep-18 00:23N 34°13' E 132°15'  
2014-Sep-14 11:14N 34°35' E 134°51'710.7
2014-Sep-14 10:34N 34°37' E 134°59'7 7.1
2014-Sep-14 09:33N 34°32' E 135°04'1110.4
2014-Sep-14 08:33N 34°22' E 135°01'10 9.6
2014-Sep-14 07:33N 34°12' E 134°60'230 9.1
2014-Sep-13 06:20N 35°04' E 139°32'1011.8
2014-Sep-13 05:31N 35°08' E 139°43'1010.4
2014-Sep-13 04:33N 35°18' E 139°44'10 9.5
2014-Sep-13 03:33N 35°27' E 139°47'4 3.6
2014-Sep-13 02:33N 35°31' E 139°46'0 0.0
2014-Sep-13 01:33N 35°31' E 139°46'0 0.0
2014-Sep-13 00:33N 35°31' E 139°46'3 2.6
2014-Sep-12 23:33N 35°29' E 139°48'0 0.2
2014-Sep-12 22:32N 35°28' E 139°48'0 0.0
2014-Sep-12 21:32N 35°28' E 139°48'0 0.0
2014-Sep-12 20:32N 35°28' E 139°48'4 4.6
2014-Sep-12 19:33N 35°24' E 139°46'10 9.8
2014-Sep-12 18:33N 35°14' E 139°47'9 9.5
2014-Sep-12 17:33N 35°05' E 139°44'240 8.2
2014-Sep-11 12:19N 34°05' E 135°02'910.3
2014-Sep-11 11:24N 34°14' E 135°03'8 9.4
2014-Sep-11 10:34N 34°21' E 135°06'1110.9
2014-Sep-11 09:33N 34°29' E 135°16'10 9.7
2014-Sep-11 08:33N 34°33' E 135°26'0 0.0
2014-Sep-11 07:33N 34°33' E 135°26'0 0.0
2014-Sep-11 06:33N 34°33' E 135°26'0 0.0
2014-Sep-11 05:33N 34°33' E 135°26'0 0.0
2014-Sep-11 04:34N 34°33' E 135°26'1 1.4
2014-Sep-11 03:29N 34°33' E 135°25'5 3.5
2014-Sep-11 02:10N 34°32' E 135°19'0 0.0
2014-Sep-11 01:11N 34°32' E 135°19'0 0.0
2014-Sep-11 00:32N 34°32' E 135°19'0 0.0
2014-Sep-10 23:08N 34°32' E 135°19'0 0.0
2014-Sep-10 22:32N 34°32' E 135°19'0 0.1
2014-Sep-10 21:26N 34°32' E 135°19'0 0.0
2014-Sep-10 17:32N 34°32' E 135°19'0 0.0
2014-Sep-10 16:26N 34°32' E 135°19'0 0.0
2014-Sep-10 15:08N 34°32' E 135°19'0 0.0
2014-Sep-10 14:14N 34°32' E 135°19'0 0.0
2014-Sep-10 13:32N 34°32' E 135°19'0 0.1
2014-Sep-10 12:32N 34°32' E 135°19'0 0.0
2014-Sep-10 11:26N 34°32' E 135°19'0 0.0
2014-Sep-10 10:33N 34°32' E 135°19'0 0.0
2014-Sep-10 09:22N 34°32' E 135°19'0 0.0
2014-Sep-10 08:16N 34°32' E 135°19'0 0.0
2014-Sep-10 07:24N 34°32' E 135°19'0 0.0
2014-Sep-10 06:24N 34°32' E 135°19'0 0.0
2014-Sep-10 05:33N 34°32' E 135°19'0 0.0
2014-Sep-10 04:33N 34°32' E 135°19'0 0.0
2014-Sep-10 03:21N 34°32' E 135°19'6 7.2
2014-Sep-10 02:33N 34°28' E 135°14'1210.8
2014-Sep-10 01:26N 34°19' E 135°04'1011.1
2014-Sep-10 00:33N 34°09' E 135°03'205 5.7
2014-Sep-08 12:32N 34°48' E 139°07'1510.5
2014-Sep-08 11:09N 34°58' E 139°20'610.0
2014-Sep-08 10:31N 35°01' E 139°27'1010.2
2014-Sep-08 09:33N 35°05' E 139°38'10 9.9
2014-Sep-08 08:33N 35°12' E 139°46'1010.3
2014-Sep-08 07:33N 35°22' E 139°42'  

Dump ship's entire track history